Terminal Aerodrome Forecast
Issued by NWS Cleveland, OH

Home | Current Version | Previous Version | Graphics & Text | Print | Product List | Glossary On
Versions: 1 2 3 4 5 6 7 8 9 10 11 12 13 14 15 16 17 18 19
000
FTUS41 KCLE 280549 AAA
TAFTOL
TAF AMD
KTOL 280549Z 2806/2906 17003KT 4SM BR SCT120 BKN200
      TEMPO 2806/2809 1 1/2SM BR
     FM280900 19003KT 4SM BR FEW008 SCT200
      TEMPO 2810/2813 2SM BR BKN008
     FM281500 24005KT P6SM SCT030 BKN200
     FM282000 28006KT P6SM VCTS SCT040CB BKN150
     FM290000 32003KT P6SM BKN150=

USA.gov is the U.S. government's official web portal to all federal, state and local government web resources and services.